createdAt,value
2023-04-13T00:00:08.219Z,1.35
2023-04-13T00:05:10.321Z,1.35
2023-04-13T00:10:09.361Z,1.50
2023-04-13T00:15:08.390Z,1.50
2023-04-13T00:20:08.468Z,1.20
2023-04-13T00:25:08.544Z,1.48
2023-04-13T00:30:08.577Z,1.70
2023-04-13T00:35:08.677Z,1.48
2023-04-13T00:40:08.724Z,1.52
2023-04-13T00:45:08.772Z,1.40
2023-04-13T00:50:08.852Z,1.60
2023-04-13T00:55:08.907Z,1.40
2023-04-13T01:00:08.945Z,1.40
2023-04-13T01:05:07.982Z,1.50
2023-04-13T01:10:08.092Z,1.92
2023-04-13T01:15:08.150Z,1.33
2023-04-13T01:20:08.204Z,1.40
2023-04-13T01:25:18.250Z,0
2023-04-13T01:30:08.256Z,1.30
2023-04-13T01:35:08.318Z,1.77
2023-04-13T01:40:08.451Z,1.50
2023-04-13T01:45:18.468Z,0
2023-04-13T01:50:08.528Z,1.40
2023-04-13T01:55:08.579Z,1.70
2023-04-13T02:00:08.694Z,1.65
2023-04-13T02:05:08.748Z,1.40
2023-04-13T02:10:08.833Z,1.42
2023-04-13T02:15:08.888Z,1.50
2023-04-13T02:20:08.912Z,1.67
2023-04-13T02:25:09.003Z,1.60
2023-04-13T02:30:08.067Z,1.35
2023-04-13T02:35:08.163Z,1.58
2023-04-13T02:40:08.232Z,1.30
2023-04-13T02:45:08.352Z,1.33
2023-04-13T02:50:08.423Z,1.58
2023-04-13T02:55:08.495Z,1.98
2023-04-13T03:00:08.590Z,1.33
2023-04-13T03:05:08.875Z,2.05
2023-04-13T03:10:09.034Z,1.30
2023-04-13T03:15:08.165Z,1.60
2023-04-13T03:20:08.225Z,1.95
2023-04-13T03:25:08.273Z,1.33
2023-04-13T03:30:08.381Z,1.70
2023-04-13T03:35:08.440Z,1.58
2023-04-13T03:40:08.469Z,1.52
2023-04-13T03:45:08.517Z,1.98
2023-04-13T03:50:08.573Z,1.60
2023-04-13T03:55:08.622Z,1.60
2023-04-13T04:00:08.685Z,1.60
2023-04-13T04:05:02.971Z,2.05
2023-04-13T04:10:02.158Z,1.75
2023-04-13T04:15:02.355Z,1.67
2023-04-13T04:20:02.566Z,1.75
2023-04-13T04:25:02.850Z,1.60
2023-04-13T04:30:05.160Z,2.17
2023-04-13T04:35:02.265Z,1.80
2023-04-13T04:40:02.419Z,1.70
2023-04-13T04:45:02.633Z,1.55
2023-04-13T04:50:02.744Z,1.55
2023-04-13T04:55:02.912Z,1.60
2023-04-13T05:00:03.017Z,1.40
2023-04-13T05:05:02.226Z,1.30
2023-04-13T05:10:02.390Z,1.30
2023-04-13T05:15:02.497Z,1.50
2023-04-13T05:20:02.658Z,2.15
2023-04-13T05:25:02.786Z,1.73
2023-04-13T05:30:02.905Z,2.00
2023-04-13T05:35:03.152Z,2.70
2023-04-13T05:40:02.405Z,2.58
2023-04-13T05:45:02.602Z,2.25
2023-04-13T05:50:02.847Z,2.40
2023-04-13T05:55:02.984Z,2.53
2023-04-13T06:00:02.091Z,3.10
2023-04-13T06:05:02.307Z,2.92
2023-04-13T06:10:02.481Z,2.92
2023-04-13T06:15:02.611Z,3.42
2023-04-13T06:20:02.830Z,3.42
2023-04-13T06:25:02.990Z,3.17
2023-04-13T06:30:02.273Z,3.75
2023-04-13T06:35:02.523Z,3.88
2023-04-13T06:40:02.666Z,4.05
2023-04-13T06:45:02.843Z,3.70
2023-04-13T06:50:03.048Z,3.70
2023-04-13T06:55:02.271Z,4.05
2023-04-13T07:00:02.580Z,3.80
2023-04-13T07:05:02.826Z,3.42
2023-04-13T07:10:03.090Z,2.92
2023-04-13T07:15:02.256Z,2.78
2023-04-13T07:20:02.443Z,3.55
2023-04-13T07:25:02.648Z,2.97
2023-04-13T07:30:02.987Z,2.63
2023-04-13T07:35:02.532Z,2.50
2023-04-13T07:40:02.867Z,2.70
2023-04-13T07:45:02.998Z,2.40
2023-04-13T07:50:02.138Z,2.60
2023-04-13T07:55:02.361Z,2.60
2023-04-13T08:00:02.497Z,2.58
2023-04-13T08:05:02.872Z,2.75
2023-04-13T08:10:02.038Z,2.80
2023-04-13T08:15:02.186Z,2.78
2023-04-13T08:20:02.322Z,3.20
2023-04-13T08:25:02.464Z,3.58
2023-04-13T08:30:02.768Z,3.17
2023-04-13T08:35:02.901Z,3.78
2023-04-13T08:40:03.040Z,4.28
2023-04-13T08:45:02.185Z,4.05
2023-04-13T08:50:02.375Z,4.13
2023-04-13T08:55:02.564Z,4.25
2023-04-13T09:00:02.704Z,4.03
2023-04-13T09:05:02.870Z,3.63
2023-04-13T09:10:02.243Z,4.47
2023-04-13T09:15:02.385Z,4.80
2023-04-13T09:20:02.556Z,3.92
2023-04-13T09:25:02.668Z,4.35
2023-04-13T09:30:02.820Z,3.85
2023-04-13T09:35:02.959Z,3.50
2023-04-13T09:40:02.137Z,3.20
2023-04-13T09:45:02.333Z,2.67
2023-04-13T09:50:02.394Z,2.15
2023-04-13T09:55:02.551Z,2.00
2023-04-13T10:00:02.688Z,1.58
2023-04-13T10:05:03.124Z,1.60
2023-04-13T10:10:02.419Z,2.10
2023-04-13T10:15:02.540Z,1.95
2023-04-13T10:20:02.722Z,2.20
2023-04-13T10:25:02.959Z,2.33
2023-04-13T10:30:02.149Z,2.85
2023-04-13T10:35:02.304Z,3.63
2023-04-13T10:40:02.552Z,3.00
2023-04-13T10:45:02.673Z,3.38
2023-04-13T10:50:02.772Z,2.92
2023-04-13T10:55:02.974Z,2.60
2023-04-13T11:00:02.127Z,3.20
2023-04-13T11:05:02.660Z,3.42
2023-04-13T11:10:03.798Z,3.00
2023-04-13T11:15:02.964Z,2.97
2023-04-13T11:20:02.228Z,2.15
2023-04-13T11:25:02.357Z,2.28
2023-04-13T11:30:02.414Z,2.33
2023-04-13T11:35:02.600Z,2.17
2023-04-13T11:40:02.918Z,2.30
2023-04-13T11:45:03.094Z,2.15
2023-04-13T11:50:02.393Z,2.28
2023-04-13T11:55:14.879Z,2.92
2023-04-13T12:00:02.236Z,2.70
2023-04-13T12:05:02.697Z,2.80
2023-04-13T12:10:06.050Z,2.92
2023-04-13T12:15:17.180Z,4.38
2023-04-13T12:20:04.004Z,2.20
2023-04-13T12:25:02.938Z,2.65
2023-04-13T12:30:02.182Z,2.33
2023-04-13T12:35:02.301Z,2.65
2023-04-13T12:40:02.558Z,2.80
2023-04-13T12:45:02.649Z,2.42
2023-04-13T12:50:02.829Z,2.40
2023-04-13T12:55:02.989Z,4.70
2023-04-13T13:00:02.135Z,5.10
2023-04-13T13:05:02.341Z,3.83
2023-04-13T13:10:02.530Z,2.35
2023-04-13T13:15:02.723Z,2.00
2023-04-13T13:20:03.203Z,1.90
2023-04-13T13:25:02.411Z,2.25
2023-04-13T13:30:02.564Z,1.88
2023-04-13T13:35:02.750Z,2.47
2023-04-13T13:40:02.901Z,2.28
2023-04-13T13:45:03.117Z,2.22
2023-04-13T13:50:02.352Z,1.95
2023-04-13T13:55:02.541Z,2.05
2023-04-13T14:00:02.754Z,1.90
2023-04-13T14:05:02.910Z,1.80
2023-04-13T14:10:03.051Z,1.65
2023-04-13T14:15:02.235Z,2.05
2023-04-13T14:20:02.408Z,2.00
2023-04-13T14:25:02.514Z,2.22
2023-04-13T14:30:02.648Z,1.80
2023-04-13T14:35:02.798Z,2.88
2023-04-13T14:40:02.971Z,1.80
2023-04-13T14:45:02.235Z,1.50
2023-04-13T14:50:02.358Z,1.60
2023-04-13T14:55:02.507Z,1.42
2023-04-13T15:00:02.672Z,1.50
2023-04-13T15:05:02.894Z,1.15
2023-04-13T15:10:02.093Z,1.88
2023-04-13T15:15:02.255Z,1.83
2023-04-13T15:20:02.623Z,1.33
2023-04-13T15:25:02.837Z,1.73
2023-04-13T15:30:03.396Z,1.45
2023-04-13T15:35:02.904Z,1.73
2023-04-13T15:40:03.153Z,1.63
2023-04-13T15:45:02.339Z,1.42
2023-04-13T15:50:02.584Z,1.40
2023-04-13T15:55:02.726Z,1.50
2023-04-13T16:00:03.096Z,1.65
2023-04-13T16:05:02.248Z,1.60
2023-04-13T16:10:02.504Z,1.40
2023-04-13T16:15:02.628Z,1.48
2023-04-13T16:20:02.764Z,1.38
2023-04-13T16:25:02.949Z,1.40
2023-04-13T16:30:03.527Z,1.33
2023-04-13T16:35:02.771Z,2.80
2023-04-13T16:40:03.039Z,1.50
2023-04-13T16:50:02.665Z,1.80
2023-04-13T16:55:02.792Z,1.55
2023-04-13T17:00:02.991Z,1.15
2023-04-13T17:05:02.134Z,1.25
2023-04-13T17:10:02.295Z,1.38
2023-04-13T17:15:02.391Z,1.40
2023-04-13T17:20:02.674Z,1.20
2023-04-13T17:25:02.793Z,1.45
2023-04-13T17:30:02.998Z,1.50
2023-04-13T17:35:02.277Z,1.60
2023-04-13T17:40:02.562Z,1.17
2023-04-13T17:45:02.780Z,1.50
2023-04-13T17:50:03.004Z,1.30
2023-04-13T17:55:02.211Z,1.48
2023-04-13T18:00:02.363Z,1.75
2023-04-13T18:05:02.530Z,1.33
2023-04-13T18:10:02.757Z,1.30
2023-04-13T18:15:02.937Z,1.30
2023-04-13T18:20:02.258Z,1.15
2023-04-13T18:25:02.406Z,1.50
2023-04-13T18:30:02.536Z,1.67
2023-04-13T18:35:02.680Z,1.35
2023-04-13T18:40:02.821Z,1.90
2023-04-13T18:45:03.068Z,2.60
2023-04-13T18:50:02.270Z,2.72
2023-04-13T18:55:02.486Z,1.77
2023-04-13T19:00:02.804Z,2.10
2023-04-13T19:05:03.221Z,2.03
2023-04-13T19:10:02.470Z,2.10
2023-04-13T19:15:02.652Z,1.80
2023-04-13T19:20:02.828Z,1.60
2023-04-13T19:25:02.979Z,1.95
2023-04-13T19:30:02.260Z,1.85
2023-04-13T19:35:02.458Z,2.38
2023-04-13T19:40:02.706Z,3.78
2023-04-13T19:45:02.943Z,3.50
2023-04-13T19:50:02.115Z,3.90
2023-04-13T19:55:02.260Z,3.72
2023-04-13T20:00:02.616Z,2.25
2023-04-13T20:05:02.741Z,2.28
2023-04-13T20:10:02.929Z,1.52
2023-04-13T20:15:03.075Z,1.30
2023-04-13T20:20:02.244Z,1.33
2023-04-13T20:25:02.464Z,1.23
2023-04-13T20:30:02.735Z,0.98
2023-04-13T20:35:03.052Z,1.15
2023-04-13T20:40:02.270Z,1.27
2023-04-13T20:45:02.461Z,1.10
2023-04-13T20:50:02.648Z,1.00
2023-04-13T20:55:02.780Z,1.00
2023-04-13T21:00:02.888Z,1.30
2023-04-13T21:05:16.076Z,1.33
2023-04-13T21:10:08.084Z,1.05
2023-04-13T21:15:08.091Z,0.93
2023-04-13T21:20:08.118Z,1.10
2023-04-13T21:25:08.183Z,1.67
2023-04-13T21:30:08.249Z,1.20
2023-04-13T21:35:08.318Z,1.10
2023-04-13T21:40:08.431Z,1.20
2023-04-13T21:45:08.493Z,1.25
2023-04-13T21:50:08.538Z,1.40
2023-04-13T21:55:08.629Z,1.20
2023-04-13T22:00:08.729Z,1.50
2023-04-13T22:05:08.764Z,1.27
2023-04-13T22:10:08.802Z,1.65
2023-04-13T22:15:08.887Z,1.20
2023-04-13T22:20:08.990Z,1.20
2023-04-13T22:25:08.099Z,1.27
2023-04-13T22:30:08.139Z,1.50
2023-04-13T22:35:08.227Z,1.00
2023-04-13T22:40:08.304Z,1.13
2023-04-13T22:45:08.368Z,1.23
2023-04-13T22:50:08.408Z,1.70
2023-04-13T22:55:08.500Z,1.60
2023-04-13T23:01:13.237Z,1.50
2023-04-13T23:05:08.566Z,1.75
2023-04-13T23:10:08.653Z,1.40
2023-04-13T23:15:08.708Z,1.40
2023-04-13T23:20:08.787Z,2.22
2023-04-13T23:25:08.821Z,1.55
2023-04-13T23:30:08.886Z,1.85
2023-04-13T23:35:08.895Z,1.80
2023-04-13T23:40:08.929Z,1.42
2023-04-13T23:45:08.049Z,1.83
2023-04-13T23:50:08.138Z,1.58
2023-04-13T23:55:08.238Z,1.50
